createdAt,value
2023-02-04T01:04:40.805Z,10.49
2023-02-04T01:19:42.279Z,10.55
2023-02-04T01:34:44.206Z,10.58
2023-02-04T01:49:47.106Z,10.34
2023-02-04T02:04:48.697Z,10.78
2023-02-04T02:19:50.431Z,10.61
2023-02-04T02:34:51.971Z,10.82
2023-02-04T02:50:34.801Z,10.81
2023-02-04T03:05:39.432Z,10.90
2023-02-04T03:20:41.278Z,10.67
2023-02-04T03:35:42.868Z,10.75
2023-02-04T03:50:44.362Z,10.66
2023-02-04T04:05:45.926Z,10.82
2023-02-04T04:20:47.428Z,10.54
2023-02-04T04:35:48.921Z,10.59
2023-02-04T04:50:50.464Z,10.61
2023-02-04T05:22:01.746Z,10.65
2023-02-04T05:37:03.359Z,10.75
2023-02-04T05:52:04.947Z,10.74
2023-02-04T06:07:06.504Z,10.66
2023-02-04T06:22:08.119Z,10.67
2023-02-04T06:37:09.714Z,10.26
2023-02-04T06:52:11.250Z,10.38
2023-02-04T09:18:05.124Z,10.98
2023-02-04T09:33:35.341Z,10.85
2023-02-04T09:48:37.753Z,10.86
2023-02-04T10:03:46.611Z,10.60
2023-02-04T10:18:48.392Z,10.82
2023-02-04T10:50:07.490Z,10.55
2023-02-04T11:05:20.136Z,10.93
2023-02-04T11:20:31.147Z,11.14
2023-02-04T11:35:33.364Z,11.11
2023-02-04T11:50:38.576Z,11.13
2023-02-04T12:05:41.683Z,11.29
2023-02-04T12:20:43.283Z,11.52
2023-02-04T12:35:44.887Z,11.13
2023-02-04T12:50:46.512Z,11.04
2023-02-04T13:05:48.087Z,10.81
2023-02-04T13:20:49.657Z,11.20
2023-02-04T13:36:00.212Z,11.19
2023-02-04T13:51:20.611Z,11.07
2023-02-04T14:06:25.120Z,11.00
2023-02-04T18:28:48.107Z,10.62
2023-02-04T18:43:51.273Z,10.72
2023-02-04T18:58:52.856Z,10.94
2023-02-04T19:13:56.091Z,10.92
2023-02-04T19:28:57.700Z,11.07
2023-02-04T22:11:40.400Z,11.24
2023-02-04T22:26:41.937Z,11.08
2023-02-04T22:41:43.535Z,11.56
2023-02-04T22:56:45.135Z,11.59
2023-02-04T23:11:46.783Z,11.57
2023-02-04T23:26:48.297Z,11.62
2023-02-04T23:41:49.996Z,11.51
2023-02-04T23:56:52.377Z,11.54
